Estació meteorològica de Bellmunt (Osona, Osona)

Consulta les dades en temps real de l'estació meteorològica de Bellmunt





Hora UTC 11:15
Temperatura 33.3 ºC
Humitat 39.0 %
Pressió 1015.3 hPa
Pluja 0.0 mm
Velocitat vent 4.8 km/h
Direcció vent S

Dades diàries 2026-09-04



Hora UTC (hivern +1h; estiu +2h)
Temperatura (ºC) Humitat (%) Pressió (hPa) Velocitat vent (km/h) Precipitació (mm)
Hora UTC Aire Humitat Pressió Vel. Dir. Vel. Max Dir. Intent. màx 5 min.
00:05 20.4 66.0 1017.4 0.0 N 0.0 0.0
00:10 20.3 66.0 1017.5 0.0 ENE 0.0 0.0
00:15 20.5 66.0 1017.5 3.2 NNE 4.8 0.0
00:20 20.7 65.0 1017.5 6.4 NE 6.4 0.0
00:25 20.8 65.0 1017.4 1.6 ENE 6.4 0.0
00:30 20.7 65.0 1017.4 0.0 SW 6.4 0.0
00:35 20.5 65.0 1017.4 0.0 WSW 0.0 0.0
00:40 20.3 66.0 1017.3 0.0 WSW 0.0 0.0
00:45 20.2 66.0 1017.2 0.0 WSW 0.0 0.0
00:50 20.3 66.0 1017.1 0.0 NNE 0.0 0.0
00:55 20.2 66.0 1017.1 0.0 NNE 0.0 0.0
01:00 20.1 66.0 1017.1 0.0 E 0.0 0.0
01:05 19.9 67.0 1017.0 0.0 E 0.0 0.0
01:10 19.8 67.0 1017.0 0.0 E 0.0 0.0
01:15 19.8 67.0 1017.0 0.0 E 0.0 0.0
01:20 19.7 67.0 1016.9 0.0 E 0.0 0.0
01:25 19.5 67.0 1017.0 0.0 NNE 0.0 0.0
01:30 19.5 68.0 1016.9 0.0 NNE 0.0 0.0
01:35 19.6 68.0 1016.9 0.0 NNE 0.0 0.0
01:40 19.7 68.0 1016.9 4.8 NNE 6.4 0.0
01:45 19.8 68.0 1016.8 3.2 NNE 6.4 0.0
01:50 19.8 67.0 1016.8 0.0 NNE 6.4 0.0
01:55 19.8 67.0 1016.8 0.0 NNE 3.2 0.0
02:00 19.6 68.0 1016.8 0.0 SSE 0.0 0.0
02:05 19.5 68.0 1016.7 0.0 SSW 0.0 0.0
02:10 19.4 68.0 1016.6 0.0 NNE 0.0 0.0
02:15 19.4 68.0 1016.6 0.0 NNE 0.0 0.0
02:20 19.3 68.0 1016.5 0.0 NNE 0.0 0.0
02:25 19.2 68.0 1016.5 0.0 NNE 0.0 0.0
02:30 18.9 68.0 1016.5 0.0 NNE 0.0 0.0
02:35 18.8 69.0 1016.5 0.0 NNE 0.0 0.0
02:40 18.9 70.0 1016.4 0.0 NNE 0.0 0.0
02:45 18.9 69.0 1016.4 0.0 NE 0.0 0.0
02:50 18.7 69.0 1016.5 0.0 NE 0.0 0.0
02:55 18.9 70.0 1016.4 0.0 NE 0.0 0.0
03:00 19.1 70.0 1016.4 0.0 NE 0.0 0.0
03:05 19.2 70.0 1016.4 0.0 NE 0.0 0.0
03:10 19.2 70.0 1016.4 0.0 NE 0.0 0.0
03:15 19.0 70.0 1016.3 0.0 NE 0.0 0.0
03:20 18.8 70.0 1016.3 0.0 NE 0.0 0.0
03:25 18.7 70.0 1016.2 0.0 NNE 0.0 0.0
03:30 18.4 70.0 1016.2 0.0 N 0.0 0.0
03:35 18.4 70.0 1016.1 0.0 N 0.0 0.0
03:40 18.4 71.0 1016.0 0.0 N 0.0 0.0
03:45 18.5 71.0 1016.0 0.0 N 0.0 0.0
03:50 18.6 71.0 1015.9 0.0 N 0.0 0.0
03:55 18.4 71.0 1015.9 0.0 NNE 0.0 0.0
04:00 18.3 71.0 1015.9 0.0 NNE 0.0 0.0
04:05 18.2 71.0 1015.8 0.0 NNE 0.0 0.0
04:10 18.2 72.0 1015.8 0.0 NNE 0.0 0.0
04:15 18.1 72.0 1015.9 0.0 NNE 0.0 0.0
04:20 18.1 72.0 1015.8 0.0 NNE 0.0 0.0
04:25 18.1 72.0 1015.8 0.0 NNE 0.0 0.0
04:30 18.0 72.0 1015.7 0.0 W 0.0 0.0
04:35 17.8 73.0 1015.8 0.0 W 0.0 0.0
04:40 17.7 73.0 1015.7 0.0 W 0.0 0.0
04:45 17.8 73.0 1015.7 0.0 NE 0.0 0.0
04:50 17.9 73.0 1015.7 0.0 NE 0.0 0.0
04:55 17.8 73.0 1015.6 0.0 NE 0.0 0.0
05:00 17.7 73.0 1015.6 0.0 NE 0.0 0.0
05:05 17.7 73.0 1015.5 0.0 NE 0.0 0.0
05:10 17.7 73.0 1015.6 0.0 NE 0.0 0.0
05:15 17.7 73.0 1015.5 0.0 NNE 0.0 0.0
05:20 17.6 73.0 1015.5 0.0 NNE 0.0 0.0
05:25 17.7 73.0 1015.5 0.0 NE 0.0 0.0
05:30 17.7 73.0 1015.4 0.0 ENE 0.0 0.0
05:35 17.7 74.0 1015.4 0.0 ENE 0.0 0.0
05:40 17.8 74.0 1015.4 0.0 NE 0.0 0.0
05:45 17.8 73.0 1015.4 0.0 NE 0.0 0.0
05:50 17.9 74.0 1015.4 0.0 NNE 0.0 0.0
05:55 18.0 73.0 1015.5 0.0 NNE 0.0 0.0
06:00 18.1 73.0 1015.5 0.0 NNE 0.0 0.0
06:05 18.3 73.0 1015.5 0.0 NNE 0.0 0.0
06:10 18.6 73.0 1015.5 0.0 NNE 0.0 0.0
06:15 18.8 73.0 1015.5 0.0 NNE 0.0 0.0
06:20 19.3 72.0 1015.6 0.0 NNE 0.0 0.0
06:25 19.7 70.0 1015.5 0.0 ENE 0.0 0.0
06:30 19.9 69.0 1015.5 0.0 SE 0.0 0.0
06:35 20.1 69.0 1015.5 0.0 SE 0.0 0.0
06:40 20.2 68.0 1015.5 0.0 SE 0.0 0.0
06:45 20.2 68.0 1015.5 0.0 WSW 0.0 0.0
06:50 20.2 68.0 1015.5 0.0 WSW 0.0 0.0
06:55 20.2 68.0 1015.6 0.0 W 4.8 0.0
07:00 20.3 68.0 1015.5 0.0 W 3.2 0.0
07:05 20.8 68.0 1015.5 0.0 W 0.0 0.0
07:10 21.1 67.0 1015.5 0.0 W 0.0 0.0
07:15 21.4 67.0 1015.5 0.0 W 0.0 0.0
07:20 21.4 67.0 1015.6 0.0 W 0.0 0.0
07:25 21.8 67.0 1015.6 0.0 W 0.0 0.0
07:30 22.2 66.0 1015.6 0.0 W 0.0 0.0
07:35 22.6 65.0 1015.6 0.0 W 0.0 0.0
07:40 22.7 64.0 1015.6 0.0 W 0.0 0.0
07:45 22.9 64.0 1015.6 0.0 W 0.0 0.0
07:50 23.1 64.0 1015.6 0.0 W 3.2 0.0
07:55 23.5 63.0 1015.6 3.2 W 3.2 0.0
08:00 23.9 62.0 1015.5 0.0 W 3.2 0.0
08:05 24.1 62.0 1015.5 1.6 W 4.8 0.0
08:10 24.4 62.0 1015.5 1.6 W 4.8 0.0
08:15 24.7 62.0 1015.5 0.0 W 3.2 0.0
08:20 24.8 61.0 1015.5 3.2 W 4.8 0.0
08:25 24.8 62.0 1015.5 3.2 W 4.8 0.0
08:30 25.1 60.0 1015.5 0.0 W 4.8 0.0
08:35 25.3 60.0 1015.5 0.0 W 4.8 0.0
08:40 25.5 60.0 1015.5 3.2 W 6.4 0.0
08:45 25.8 60.0 1015.6 3.2 W 6.4 0.0
08:50 25.9 58.0 1015.6 0.0 W 4.8 0.0
08:55 26.5 56.0 1015.7 3.2 W 6.4 0.0
09:00 26.8 57.0 1015.7 1.6 W 6.4 0.0
09:05 27.3 55.0 1015.8 0.0 W 3.2 0.0
09:10 27.7 54.0 1015.7 1.6 W 4.8 0.0
09:15 27.8 53.0 1015.7 1.6 W 6.4 0.0
09:20 28.0 54.0 1015.7 1.6 W 6.4 0.0
09:25 28.2 54.0 1015.7 4.8 W 4.8 0.0
09:30 28.6 52.0 1015.8 0.0 W 4.8 0.0
09:35 29.1 52.0 1015.7 0.0 W 4.8 0.0
09:40 29.4 52.0 1015.7 1.6 W 6.4 0.0
09:45 29.6 51.0 1015.7 3.2 W 4.8 0.0
09:50 29.9 50.0 1015.7 0.0 W 6.4 0.0
09:55 30.2 50.0 1015.7 0.0 W 4.8 0.0
10:00 30.6 48.0 1015.7 3.2 W 6.4 0.0
10:05 30.8 47.0 1015.7 0.0 W 6.4 0.0
10:10 31.2 47.0 1015.7 1.6 W 6.4 0.0
10:15 31.2 43.0 1015.7 6.4 E 11.3 0.0
10:20 31.2 45.0 1015.7 4.8 SSW 11.3 0.0
10:25 31.3 45.0 1015.7 1.6 SW 8.0 0.0
10:30 31.8 43.0 1015.7 6.4 SSE 8.0 0.0
10:35 31.6 44.0 1015.6 8.0 S 8.0 0.0
10:40 31.7 44.0 1015.7 4.8 WSW 8.0 0.0
10:45 31.7 44.0 1015.6 4.8 NW 6.4 0.0
10:50 31.8 43.0 1015.6 0.0 W 9.7 0.0
10:55 32.4 42.0 1015.5 1.6 W 9.7 0.0
11:00 33.1 43.0 1015.5 3.2 W 6.4 0.0
11:05 33.0 41.0 1015.4 3.2 W 11.3 0.0
11:10 32.8 42.0 1015.3 1.6 W 11.3 0.0
11:15 33.3 39.0 1015.3 4.8 S 11.3 0.0
Màxima 33.3 74.0 1017.5 8.0 S 11.3 0.0
Mínima 17.6 39.0 1015.3
Total 0.0